createdAt,value
2022-11-29T00:01:40.895Z,25.75
2022-11-29T00:04:13.565Z,24.02
2022-11-29T00:06:46.239Z,19.25
2022-11-29T00:09:19.126Z,17.42
2022-11-29T00:12:10.534Z,17.67
2022-11-29T00:14:43.320Z,16.42
2022-11-29T00:17:16.186Z,21.50
2022-11-29T00:19:48.810Z,17.27
2022-11-29T00:22:23.597Z,18.50
2022-11-29T00:24:56.299Z,20.40
2022-11-29T00:27:29.100Z,17.13
2022-11-29T00:30:02.011Z,16.48
2022-11-29T00:32:35.714Z,17.55
2022-11-29T00:35:09.953Z,18.83
2022-11-29T00:37:42.745Z,21.17
2022-11-29T00:40:15.423Z,17.17
2022-11-29T00:42:48.208Z,15.02
2022-11-29T00:45:20.915Z,20.00
2022-11-29T00:47:53.528Z,14.85
2022-11-29T00:50:26.288Z,17.10
2022-11-29T00:52:58.911Z,18.65
2022-11-29T00:55:31.547Z,22.40
2022-11-29T00:58:04.382Z,15.68
2022-11-29T01:00:37.227Z,19.60
2022-11-29T01:03:10.192Z,17.77
2022-11-29T01:05:43.554Z,13.25
2022-11-29T01:08:17.388Z,22.92
2022-11-29T01:10:49.992Z,16.00
2022-11-29T01:13:22.648Z,15.70
2022-11-29T01:15:57.514Z,20.77
2022-11-29T01:18:30.942Z,17.05
2022-11-29T01:21:09.518Z,14.85
2022-11-29T01:23:44.589Z,19.38
2022-11-29T01:26:24.752Z,17.63
2022-11-29T01:28:59.399Z,17.95
2022-11-29T01:31:37.921Z,19.10
2022-11-29T01:34:11.232Z,15.93
2022-11-29T01:36:43.966Z,18.85
2022-11-29T01:39:16.620Z,19.08
2022-11-29T01:41:49.356Z,19.40
2022-11-29T01:44:21.943Z,18.95
2022-11-29T01:46:56.143Z,18.80
2022-11-29T01:49:37.978Z,16.05
2022-11-29T01:52:23.540Z,17.95
2022-11-29T01:55:01.782Z,14.82
2022-11-29T01:57:39.230Z,20.08
2022-11-29T02:00:17.373Z,18.33
2022-11-29T02:03:00.306Z,19.30
2022-11-29T02:05:33.708Z,25.08
2022-11-29T02:08:09.803Z,34.40
2022-11-29T02:11:15.472Z,15.90
2022-11-29T02:14:11.794Z,25.52
2022-11-29T02:17:01.706Z,21.30
2022-11-29T02:20:24.847Z,24.75
2022-11-29T02:23:26.359Z,23.75
2022-11-29T02:26:50.759Z,57.42
2022-11-29T02:30:08.760Z,22.65
2022-11-29T02:32:41.184Z,25.02
2022-11-29T02:35:52.626Z,50.22
2022-11-29T02:38:54.012Z,31.50
2022-11-29T02:41:40.651Z,12.32
2022-11-29T02:44:27.810Z,28.73
2022-11-29T02:47:13.753Z,17.83
2022-11-29T02:50:19.864Z,24.63
2022-11-29T02:53:17.472Z,20.58
2022-11-29T02:56:14.259Z,14.23
2022-11-29T02:59:23.784Z,14.80
2022-11-29T03:02:37.897Z,12.60
2022-11-29T03:05:25.227Z,15.52
2022-11-29T03:08:25.233Z,22.88
2022-11-29T03:11:39.828Z,15.35
2022-11-29T03:14:26.927Z,14.60
2022-11-29T03:17:51.481Z,19.83
2022-11-29T03:20:38.436Z,21.45
2022-11-29T03:23:33.785Z,29.08
2022-11-29T03:26:14.590Z,19.83
2022-11-29T03:29:27.064Z,36.70
2022-11-29T03:32:13.767Z,26.83
2022-11-29T03:35:18.362Z,13.38
2022-11-29T03:38:36.251Z,20.48
2022-11-29T03:41:43.268Z,16.10
2022-11-29T03:44:30.148Z,23.55
2022-11-29T03:47:16.319Z,20.17
2022-11-29T03:50:02.547Z,12.25
2022-11-29T03:52:49.928Z,13.48
2022-11-29T03:55:41.097Z,17.10
2022-11-29T03:58:28.977Z,16.15
2022-11-29T04:01:22.480Z,11.65
2022-11-29T04:04:48.153Z,9.52
2022-11-29T04:07:33.583Z,19.13
2022-11-29T04:10:34.797Z,16.75
2022-11-29T04:13:54.272Z,22.50
2022-11-29T04:17:14.770Z,9.77
2022-11-29T04:20:39.145Z,12.63
2022-11-29T04:23:46.765Z,22.58
2022-11-29T04:26:38.470Z,13.82
2022-11-29T04:29:23.914Z,13.10
2022-11-29T04:32:19.117Z,26.27
2022-11-29T04:35:33.794Z,17.65
2022-11-29T04:38:15.441Z,20.17
2022-11-29T04:41:15.925Z,13.65
2022-11-29T04:43:57.520Z,17.02
2022-11-29T04:46:39.905Z,9.45
2022-11-29T04:49:50.636Z,12.95
2022-11-29T04:52:30.813Z,33.17
2022-11-29T04:55:43.056Z,35.85
2022-11-29T04:58:44.200Z,19.25
2022-11-29T05:01:38.911Z,12.70
2022-11-29T05:04:21.486Z,8.05
2022-11-29T05:07:19.294Z,14.40
2022-11-29T05:10:29.111Z,11.30
2022-11-29T05:13:40.912Z,21.98
2022-11-29T05:16:45.760Z,11.30
2022-11-29T05:19:36.108Z,12.27
2022-11-29T05:22:55.991Z,15.07
2022-11-29T05:25:42.122Z,11.00
2022-11-29T05:28:31.696Z,16.35
2022-11-29T05:31:35.059Z,14.90
2022-11-29T05:34:30.306Z,21.85
2022-11-29T05:37:15.017Z,20.45
2022-11-29T05:40:34.710Z,10.70
2022-11-29T05:43:37.028Z,30.92
2022-11-29T05:46:28.538Z,19.35
2022-11-29T05:49:22.341Z,12.95
2022-11-29T05:52:29.742Z,23.48
2022-11-29T05:55:44.344Z,17.35
2022-11-29T05:58:35.469Z,10.05
2022-11-29T06:01:29.380Z,18.85
2022-11-29T06:04:17.828Z,11.38
2022-11-29T06:07:02.708Z,12.07
2022-11-29T06:09:48.797Z,22.08
2022-11-29T06:12:24.696Z,18.40
2022-11-29T06:15:48.504Z,26.13
2022-11-29T06:19:08.841Z,18.42
2022-11-29T06:22:09.752Z,28.73
2022-11-29T06:25:42.707Z,15.52
2022-11-29T06:28:44.461Z,18.23
2022-11-29T06:31:39.741Z,17.35
2022-11-29T06:34:36.827Z,11.75
2022-11-29T06:37:28.894Z,11.85
2022-11-29T06:40:02.198Z,11.55
2022-11-29T06:42:34.825Z,11.15
2022-11-29T06:45:10.653Z,13.13
2022-11-29T06:47:53.022Z,21.15
2022-11-29T06:50:49.913Z,12.93
2022-11-29T06:53:51.777Z,13.63
2022-11-29T06:56:49.456Z,15.82
2022-11-29T06:59:52.732Z,20.65
2022-11-29T07:02:55.904Z,15.32
2022-11-29T07:05:31.685Z,17.08
2022-11-29T07:08:12.748Z,19.92
2022-11-29T07:10:50.105Z,19.77
2022-11-29T07:13:23.841Z,15.07
2022-11-29T07:16:28.484Z,15.65
2022-11-29T07:19:31.761Z,17.30
2022-11-29T07:22:37.782Z,17.17
2022-11-29T07:25:53.110Z,19.73
2022-11-29T07:29:13.569Z,15.55
2022-11-29T07:32:17.110Z,13.43
2022-11-29T07:35:04.285Z,14.75
2022-11-29T07:38:06.449Z,10.93
2022-11-29T07:41:40.717Z,15.48
2022-11-29T07:44:30.710Z,13.23
2022-11-29T07:47:03.341Z,21.25
2022-11-29T07:49:36.105Z,13.02
2022-11-29T07:52:14.738Z,18.10
2022-11-29T07:54:47.845Z,13.48
2022-11-29T07:57:20.783Z,15.68
2022-11-29T07:59:53.440Z,16.17
2022-11-29T08:02:31.333Z,21.67
2022-11-29T08:05:04.590Z,15.48
2022-11-29T08:07:39.765Z,24.60
2022-11-29T08:10:16.883Z,15.30
2022-11-29T08:12:51.766Z,17.98
2022-11-29T08:15:25.950Z,23.25
2022-11-29T08:17:58.657Z,21.35
2022-11-29T08:20:31.382Z,17.98
2022-11-29T08:23:04.098Z,23.30
2022-11-29T08:25:37.002Z,15.65
2022-11-29T08:28:10.178Z,17.38
2022-11-29T08:30:42.870Z,19.50
2022-11-29T08:33:15.484Z,19.58
2022-11-29T08:35:48.198Z,22.42
2022-11-29T08:38:20.785Z,31.73
2022-11-29T08:40:53.557Z,22.13
2022-11-29T08:43:26.202Z,28.98
2022-11-29T08:45:59.347Z,21.88
2022-11-29T08:48:32.169Z,25.85
2022-11-29T08:51:06.480Z,20.40
2022-11-29T08:53:42.052Z,18.73
2022-11-29T08:59:13.616Z,18.05
2022-11-29T09:01:46.340Z,24.38
2022-11-29T09:04:19.032Z,27.33
2022-11-29T09:06:51.862Z,19.17
2022-11-29T09:09:24.614Z,20.77
2022-11-29T09:11:57.306Z,26.55
2022-11-29T09:14:30.919Z,75.97
2022-11-29T09:17:03.708Z,31.42
2022-11-29T09:19:36.547Z,24.52
2022-11-29T09:22:09.500Z,34.75
2022-11-29T09:24:45.422Z,18.67
2022-11-29T09:29:51.151Z,27.40
2022-11-29T09:32:24.002Z,31.15
2022-11-29T09:34:56.663Z,22.60
2022-11-29T09:37:29.459Z,20.17
2022-11-29T09:40:02.232Z,26.30
2022-11-29T09:43:04.785Z,24.55
2022-11-29T09:45:45.422Z,24.48
2022-11-29T09:49:03.166Z,34.15
2022-11-29T09:51:55.339Z,21.25
2022-11-29T09:55:10.143Z,22.27
2022-11-29T09:57:50.547Z,49.65
2022-11-29T10:00:23.429Z,26.27
2022-11-29T10:03:16.987Z,29.42
2022-11-29T10:05:57.692Z,14.30
2022-11-29T10:08:43.198Z,30.92
2022-11-29T10:11:56.508Z,27.13
2022-11-29T10:14:56.231Z,24.58
2022-11-29T10:17:44.448Z,29.63
2022-11-29T10:20:25.567Z,25.88
2022-11-29T10:23:16.089Z,30.85
2022-11-29T10:25:52.916Z,20.25
2022-11-29T10:28:32.027Z,24.65
2022-11-29T10:31:33.239Z,17.35
2022-11-29T10:34:30.953Z,15.13
2022-11-29T10:37:04.407Z,21.23
2022-11-29T10:39:47.834Z,32.47
2022-11-29T10:42:43.410Z,33.45
2022-11-29T10:47:56.625Z,26.00
2022-11-29T10:50:34.406Z,23.50
2022-11-29T10:53:13.645Z,34.45
2022-11-29T10:55:55.270Z,23.85
2022-11-29T10:58:30.817Z,51.45
2022-11-29T11:01:08.815Z,54.72
2022-11-29T11:03:54.079Z,34.28
2022-11-29T11:06:42.146Z,24.40
2022-11-29T11:10:04.214Z,83.00
2022-11-29T11:12:46.586Z,52.15
2022-11-29T11:15:32.050Z,37.50
2022-11-29T11:18:18.864Z,31.33
2022-11-29T11:20:57.161Z,62.92
2022-11-29T11:23:42.372Z,34.20
2022-11-29T11:26:15.464Z,40.38
2022-11-29T11:28:59.491Z,30.17
2022-11-29T11:31:37.909Z,27.35
2022-11-29T11:34:26.205Z,44.35
2022-11-29T11:37:29.290Z,45.42
2022-11-29T11:40:29.226Z,35.78
2022-11-29T11:43:03.225Z,29.35
2022-11-29T11:45:38.653Z,56.22
2022-11-29T11:48:16.540Z,16.40
2022-11-29T11:50:58.238Z,16.50
2022-11-29T11:53:37.629Z,35.53
2022-11-29T11:56:14.435Z,47.28
2022-11-29T11:58:57.136Z,59.45
2022-11-29T12:04:35.565Z,20.73
2022-11-29T12:07:59.740Z,17.60
2022-11-29T12:10:30.373Z,18.45
2022-11-29T12:13:04.606Z,35.55
2022-11-29T12:15:44.129Z,45.33
2022-11-29T12:18:50.095Z,25.38
2022-11-29T12:21:31.876Z,24.10
2022-11-29T12:24:27.555Z,28.48
2022-11-29T12:27:05.413Z,33.00
2022-11-29T12:29:38.334Z,26.05
2022-11-29T12:32:17.051Z,36.45
2022-11-29T12:34:58.629Z,35.35
2022-11-29T12:37:56.261Z,26.48
2022-11-29T12:41:18.350Z,30.58
2022-11-29T12:44:12.845Z,29.65
2022-11-29T12:50:18.459Z,23.08
2022-11-29T12:53:16.280Z,28.83
2022-11-29T12:56:16.258Z,31.63
2022-11-29T12:59:29.354Z,37.47
2022-11-29T13:02:34.370Z,28.75
2022-11-29T13:05:27.919Z,26.30
2022-11-29T13:08:38.130Z,37.30
2022-11-29T13:11:34.436Z,47.05
2022-11-29T13:14:44.025Z,71.65
2022-11-29T13:17:48.291Z,33.55
2022-11-29T13:20:42.749Z,52.33
2022-11-29T13:24:07.974Z,46.85
2022-11-29T13:26:41.939Z,45.97
2022-11-29T13:29:18.282Z,31.67
2022-11-29T13:31:52.058Z,34.97
2022-11-29T13:34:39.428Z,39.05
2022-11-29T13:38:16.463Z,43.45
2022-11-29T13:41:03.651Z,35.25
2022-11-29T13:43:54.344Z,37.65
2022-11-29T13:46:43.556Z,45.65
2022-11-29T13:49:52.991Z,34.35
2022-11-29T13:52:43.921Z,32.70
2022-11-29T13:55:29.030Z,32.75
2022-11-29T13:58:30.888Z,39.42
2022-11-29T14:01:11.594Z,33.03
2022-11-29T14:04:05.525Z,36.75
2022-11-29T14:06:39.278Z,36.25
2022-11-29T14:09:32.135Z,30.67
2022-11-29T14:12:21.898Z,33.60
2022-11-29T14:15:02.791Z,41.92
2022-11-29T14:17:59.447Z,36.03
2022-11-29T14:20:32.447Z,44.80
2022-11-29T14:23:05.009Z,30.65
2022-11-29T14:25:56.386Z,38.05
2022-11-29T14:28:38.753Z,37.28
2022-11-29T14:31:11.646Z,38.00
2022-11-29T14:33:47.475Z,42.75
2022-11-29T14:36:54.377Z,48.90
2022-11-29T14:39:41.292Z,38.47
2022-11-29T14:42:21.891Z,35.05
2022-11-29T14:45:06.304Z,35.08
2022-11-29T14:47:49.233Z,45.17
2022-11-29T14:50:40.194Z,36.28
2022-11-29T14:53:35.645Z,34.25
2022-11-29T14:56:34.760Z,35.15
2022-11-29T14:59:45.065Z,37.42
2022-11-29T15:02:34.830Z,31.38
2022-11-29T15:05:34.920Z,35.60
2022-11-29T15:08:17.429Z,29.45
2022-11-29T15:11:22.790Z,25.20
2022-11-29T15:14:07.537Z,27.05
2022-11-29T15:17:24.955Z,25.77
2022-11-29T15:20:17.443Z,28.13
2022-11-29T15:22:58.300Z,30.73
2022-11-29T15:25:33.484Z,30.55
2022-11-29T15:28:06.403Z,31.40
2022-11-29T15:30:42.450Z,32.10
2022-11-29T15:36:06.410Z,34.13
2022-11-29T15:38:49.110Z,32.53
2022-11-29T15:41:35.621Z,36.22
2022-11-29T15:44:23.191Z,32.08
2022-11-29T15:46:55.979Z,30.40
2022-11-29T15:49:30.597Z,39.60
2022-11-29T15:52:20.242Z,32.60
2022-11-29T15:55:05.582Z,30.13
2022-11-29T15:57:53.315Z,30.90
2022-11-29T16:00:28.306Z,36.03
2022-11-29T16:03:04.509Z,39.72
2022-11-29T16:05:39.401Z,42.47
2022-11-29T16:08:20.954Z,41.50
2022-11-29T16:10:54.642Z,63.22
2022-11-29T16:13:41.857Z,72.65
2022-11-29T16:16:20.806Z,43.63
2022-11-29T16:18:54.522Z,36.80
2022-11-29T16:21:31.397Z,32.20
2022-11-29T16:24:34.278Z,37.10
2022-11-29T16:27:08.366Z,32.63
2022-11-29T16:29:46.708Z,30.23
2022-11-29T16:32:35.761Z,36.83
2022-11-29T16:37:54.261Z,32.63
2022-11-29T16:40:30.628Z,30.70
2022-11-29T16:43:03.391Z,31.00
2022-11-29T16:45:41.965Z,34.63
2022-11-29T16:48:25.526Z,32.83
2022-11-29T16:51:23.928Z,24.13
2022-11-29T16:54:23.749Z,28.88
2022-11-29T16:57:28.373Z,24.90
2022-11-29T17:00:05.793Z,25.30
2022-11-29T17:02:51.688Z,25.23
2022-11-29T17:05:24.912Z,31.52
2022-11-29T17:07:57.972Z,25.60
2022-11-29T17:10:31.206Z,31.73
2022-11-29T17:13:04.797Z,31.20
2022-11-29T17:15:37.676Z,26.30
2022-11-29T17:18:10.501Z,25.85
2022-11-29T17:20:43.504Z,26.50
2022-11-29T17:23:16.149Z,28.73
2022-11-29T17:26:02.698Z,30.33
2022-11-29T17:28:35.379Z,30.92
2022-11-29T17:31:14.508Z,26.77
2022-11-29T17:33:47.885Z,25.85
2022-11-29T17:36:21.744Z,30.85
2022-11-29T17:38:54.383Z,25.70
2022-11-29T17:41:28.400Z,27.55
2022-11-29T17:44:02.159Z,28.90
2022-11-29T17:46:37.064Z,34.83
2022-11-29T17:49:10.894Z,30.90
2022-11-29T17:51:51.611Z,28.65
2022-11-29T17:54:24.795Z,23.58
2022-11-29T17:56:57.392Z,36.58
2022-11-29T17:59:30.499Z,25.05
2022-11-29T18:02:04.007Z,27.65
2022-11-29T18:04:37.645Z,27.05
2022-11-29T18:07:10.501Z,32.20
2022-11-29T18:09:44.281Z,29.20
2022-11-29T18:12:17.730Z,35.55
2022-11-29T18:14:51.018Z,40.83
2022-11-29T18:17:23.763Z,35.90
2022-11-29T18:19:56.449Z,32.50
2022-11-29T18:22:29.209Z,38.50
2022-11-29T18:25:30.638Z,43.83
2022-11-29T18:27:57.386Z,37.83
2022-11-29T18:30:30.208Z,33.65
2022-11-29T18:33:02.997Z,35.33
2022-11-29T18:35:35.943Z,38.25
2022-11-29T18:38:16.534Z,29.13
2022-11-29T18:40:49.584Z,39.13
2022-11-29T18:43:22.379Z,39.22
2022-11-29T18:45:55.431Z,31.67
2022-11-29T18:48:30.355Z,35.05
2022-11-29T18:51:06.261Z,35.90
2022-11-29T18:53:40.714Z,34.78
2022-11-29T18:56:22.830Z,37.25
2022-11-29T18:59:01.852Z,38.25
2022-11-29T19:01:41.401Z,39.97
2022-11-29T19:04:19.984Z,34.92
2022-11-29T19:06:52.815Z,33.17
2022-11-29T19:09:25.777Z,35.92
2022-11-29T19:11:58.574Z,43.53
2022-11-29T19:14:32.463Z,39.63
2022-11-29T19:17:05.322Z,39.95
2022-11-29T19:19:38.455Z,42.40
2022-11-29T19:22:11.417Z,32.38
2022-11-29T19:24:44.675Z,39.42
2022-11-29T19:27:17.704Z,34.58
2022-11-29T19:29:51.133Z,38.78
2022-11-29T19:32:24.219Z,40.00
2022-11-29T19:34:57.765Z,42.75
2022-11-29T19:37:31.039Z,38.85
2022-11-29T19:40:05.037Z,43.97
2022-11-29T19:42:38.137Z,43.72
2022-11-29T19:45:18.885Z,49.28
2022-11-29T19:47:53.204Z,50.10
2022-11-29T19:50:26.345Z,52.63
2022-11-29T19:52:59.878Z,41.63
2022-11-29T19:55:34.092Z,49.38
2022-11-29T19:58:07.286Z,46.85
2022-11-29T20:00:40.201Z,44.90
2022-11-29T20:03:13.429Z,55.65
2022-11-29T20:05:55.729Z,47.88
2022-11-29T20:08:30.248Z,44.15
2022-11-29T20:11:11.167Z,44.97
2022-11-29T20:13:46.921Z,43.90
2022-11-29T20:16:20.332Z,45.47
2022-11-29T20:18:53.937Z,45.38
2022-11-29T20:21:31.208Z,51.50
2022-11-29T20:24:07.978Z,47.10
2022-11-29T20:26:43.620Z,40.78
2022-11-29T20:29:17.899Z,44.70
2022-11-29T20:31:51.545Z,37.03
2022-11-29T20:34:24.806Z,44.90
2022-11-29T20:37:30.248Z,43.70
2022-11-29T20:40:16.809Z,46.22
2022-11-29T20:43:15.774Z,40.75
2022-11-29T20:45:49.242Z,49.90
2022-11-29T20:48:23.495Z,44.33
2022-11-29T20:51:02.517Z,40.13
2022-11-29T20:53:43.111Z,36.75
2022-11-29T20:56:16.156Z,51.88
2022-11-29T20:58:49.390Z,44.65
2022-11-29T21:01:22.311Z,47.45
2022-11-29T21:03:55.334Z,50.08
2022-11-29T21:06:28.136Z,55.03
2022-11-29T21:09:00.912Z,49.85
2022-11-29T21:11:33.901Z,49.25
2022-11-29T21:14:09.349Z,46.15
2022-11-29T21:16:42.604Z,58.13
2022-11-29T21:19:22.677Z,44.03
2022-11-29T21:22:22.479Z,54.50
2022-11-29T21:25:24.968Z,56.50
2022-11-29T21:27:58.225Z,50.88
2022-11-29T21:30:31.270Z,50.83
2022-11-29T21:33:04.756Z,61.25
2022-11-29T21:35:40.100Z,53.30
2022-11-29T21:38:20.720Z,56.85
2022-11-29T21:40:53.483Z,56.08
2022-11-29T21:43:58.023Z,50.50
2022-11-29T21:46:19.052Z,60.35
2022-11-29T21:48:52.969Z,59.67
2022-11-29T21:51:25.612Z,49.72
2022-11-29T21:53:58.152Z,44.75
2022-11-29T21:56:30.718Z,58.53
2022-11-29T21:59:03.696Z,52.20
2022-11-29T22:01:36.658Z,46.35
2022-11-29T22:04:09.541Z,49.72
2022-11-29T22:06:42.286Z,54.22
2022-11-29T22:09:18.110Z,49.92
2022-11-29T22:11:50.967Z,56.00
2022-11-29T22:14:24.486Z,47.28
2022-11-29T22:17:00.643Z,53.97
2022-11-29T22:22:10.817Z,54.72
2022-11-29T22:24:43.743Z,49.47
2022-11-29T22:27:18.537Z,51.03
2022-11-29T22:29:51.216Z,48.33
2022-11-29T22:32:23.937Z,46.90
2022-11-29T22:34:56.598Z,42.75
2022-11-29T22:37:29.284Z,53.10
2022-11-29T22:40:01.794Z,50.97
2022-11-29T22:42:34.426Z,50.53
2022-11-29T22:45:08.214Z,52.35
2022-11-29T22:47:41.021Z,49.45
2022-11-29T22:50:14.038Z,44.25
2022-11-29T22:52:46.763Z,44.92
2022-11-29T22:55:19.529Z,44.38
2022-11-29T22:57:53.824Z,43.50
2022-11-29T23:00:26.565Z,49.17
2022-11-29T23:02:59.312Z,48.60
2022-11-29T23:05:33.126Z,44.13
2022-11-29T23:08:05.973Z,48.30
2022-11-29T23:10:38.773Z,45.75
2022-11-29T23:13:11.405Z,40.97
2022-11-29T23:15:44.068Z,46.78
2022-11-29T23:18:16.689Z,54.70
2022-11-29T23:20:49.802Z,53.03
2022-11-29T23:23:22.474Z,43.38
2022-11-29T23:25:55.254Z,35.28
2022-11-29T23:28:29.206Z,44.95
2022-11-29T23:31:02.334Z,44.92
2022-11-29T23:33:35.370Z,48.33
2022-11-29T23:36:10.351Z,40.28
2022-11-29T23:38:43.583Z,38.55
2022-11-29T23:41:17.588Z,38.10
2022-11-29T23:43:50.693Z,44.95
2022-11-29T23:46:24.795Z,42.10
2022-11-29T23:48:57.719Z,38.50
2022-11-29T23:51:31.005Z,55.05
2022-11-29T23:54:05.626Z,43.95
2022-11-29T23:56:38.494Z,41.17
2022-11-29T23:59:11.678Z,45.58
